createdAt,value
2022-08-14T00:02:18.250Z,2.67
2022-08-14T00:04:46.938Z,2.90
2022-08-14T00:07:15.354Z,2.50
2022-08-14T00:10:01.404Z,2.60
2022-08-14T00:15:04.268Z,2.63
2022-08-14T00:17:38.030Z,2.65
2022-08-14T00:20:16.046Z,3.10
2022-08-14T00:22:57.496Z,2.25
2022-08-14T00:25:41.553Z,2.95
2022-08-14T00:28:15.075Z,2.65
2022-08-14T00:30:46.275Z,2.70
2022-08-14T00:33:16.862Z,2.33
2022-08-14T00:36:36.651Z,2.40
2022-08-14T00:38:34.759Z,2.83
2022-08-14T00:41:05.041Z,2.75
2022-08-14T00:43:33.125Z,2.60
2022-08-14T00:46:05.350Z,2.45
2022-08-14T00:48:39.130Z,2.38
2022-08-14T00:51:11.197Z,2.70
2022-08-14T00:53:40.025Z,2.38
2022-08-14T00:56:11.364Z,2.45
2022-08-14T00:58:45.080Z,4.07
2022-08-14T01:01:16.672Z,2.63
2022-08-14T01:03:52.621Z,2.30
2022-08-14T01:06:21.466Z,2.80
2022-08-14T01:08:51.435Z,2.70
2022-08-14T01:11:27.007Z,3.47
2022-08-14T01:14:18.263Z,2.78
2022-08-14T01:16:53.246Z,2.58
2022-08-14T01:19:43.339Z,2.63
2022-08-14T01:22:13.467Z,3.00
2022-08-14T01:24:47.088Z,2.60
2022-08-14T01:27:18.018Z,3.05
2022-08-14T01:30:01.094Z,2.70
2022-08-14T01:32:45.198Z,2.75
2022-08-14T01:36:01.366Z,2.75
2022-08-14T01:38:10.258Z,3.17
2022-08-14T01:40:41.959Z,2.80
2022-08-14T01:43:18.411Z,2.67
2022-08-14T01:46:06.010Z,2.70
2022-08-14T01:48:37.154Z,2.42
2022-08-14T01:51:20.266Z,2.47
2022-08-14T01:53:55.632Z,3.10
2022-08-14T01:56:37.326Z,2.63
2022-08-14T01:59:09.784Z,2.50
2022-08-14T02:01:41.868Z,2.75
2022-08-14T02:04:54.954Z,2.45
2022-08-14T02:07:15.673Z,2.63
2022-08-14T02:09:45.119Z,2.80
2022-08-14T02:12:35.958Z,2.97
2022-08-14T02:15:04.923Z,2.92
2022-08-14T02:17:34.959Z,2.50
2022-08-14T02:20:05.459Z,2.47
2022-08-14T02:22:33.963Z,2.70
2022-08-14T02:25:03.345Z,2.83
2022-08-14T02:28:24.683Z,4.57
2022-08-14T02:30:19.157Z,2.90
2022-08-14T02:32:47.308Z,2.70
2022-08-14T02:35:19.123Z,2.95
2022-08-14T02:37:50.628Z,2.97
2022-08-14T02:40:31.783Z,3.10
2022-08-14T02:43:01.020Z,2.63
2022-08-14T02:45:38.035Z,2.60
2022-08-14T02:49:01.615Z,2.78
2022-08-14T02:53:29.758Z,2.47
2022-08-14T02:56:03.173Z,3.20
2022-08-14T02:58:52.821Z,3.35
2022-08-14T03:01:31.061Z,3.10
2022-08-14T03:04:11.527Z,2.75
2022-08-14T03:06:57.755Z,3.03
2022-08-14T03:09:41.931Z,3.05
2022-08-14T03:12:30.791Z,3.00
2022-08-14T03:15:03.127Z,2.92
2022-08-14T03:17:41.187Z,3.25
2022-08-14T03:20:22.484Z,3.20
2022-08-14T03:22:51.567Z,4.15
2022-08-14T03:25:21.792Z,3.70
2022-08-14T03:27:58.128Z,3.45
2022-08-14T03:30:38.985Z,2.93
2022-08-14T03:33:10.615Z,3.45
2022-08-14T03:36:05.396Z,3.55
2022-08-14T03:39:11.954Z,3.88
2022-08-14T03:41:23.312Z,4.07
2022-08-14T03:43:57.462Z,3.58
2022-08-14T03:46:51.925Z,4.00
2022-08-14T03:49:24.070Z,4.00
2022-08-14T03:51:57.700Z,3.95
2022-08-14T03:54:26.596Z,3.75
2022-08-14T03:56:54.856Z,4.30
2022-08-14T03:59:24.189Z,4.20
2022-08-14T04:02:01.294Z,4.28
2022-08-14T04:04:30.657Z,3.83
2022-08-14T04:07:00.050Z,4.22
2022-08-14T04:09:28.454Z,4.00
2022-08-14T04:11:58.034Z,3.72
2022-08-14T04:14:29.125Z,4.57
2022-08-14T04:16:57.372Z,3.60
2022-08-14T04:19:28.108Z,4.20
2022-08-14T04:22:03.287Z,4.10
2022-08-14T04:24:39.207Z,4.55
2022-08-14T04:27:09.957Z,4.60
2022-08-14T04:29:40.859Z,7.75
2022-08-14T04:33:00.794Z,4.63
2022-08-14T04:34:59.782Z,4.15
2022-08-14T04:37:46.209Z,3.85
2022-08-14T04:40:40.553Z,3.90
2022-08-14T04:43:26.735Z,4.38
2022-08-14T04:46:10.620Z,3.87
2022-08-14T04:48:59.780Z,4.15
2022-08-14T04:51:29.982Z,4.72
2022-08-14T04:54:05.469Z,3.47
2022-08-14T04:56:34.303Z,3.70
2022-08-14T04:59:09.531Z,3.83
2022-08-14T05:01:47.760Z,3.92
2022-08-14T05:04:20.410Z,4.43
2022-08-14T05:06:53.764Z,3.83
2022-08-14T05:09:22.989Z,3.85
2022-08-14T05:11:51.521Z,3.85
2022-08-14T05:14:45.600Z,3.75
2022-08-14T05:17:11.863Z,3.92
2022-08-14T05:19:44.871Z,3.85
2022-08-14T05:22:27.644Z,3.90
2022-08-14T05:24:55.910Z,3.60
2022-08-14T05:27:24.206Z,3.70
2022-08-14T05:29:57.462Z,3.95
2022-08-14T05:32:28.262Z,3.58
2022-08-14T05:34:59.085Z,4.32
2022-08-14T05:37:29.699Z,4.43
2022-08-14T05:39:59.492Z,3.83
2022-08-14T05:42:34.382Z,3.58
2022-08-14T05:45:04.395Z,3.58
2022-08-14T05:47:39.228Z,3.35
2022-08-14T05:50:18.556Z,3.60
2022-08-14T05:52:50.343Z,3.70
2022-08-14T05:55:22.786Z,3.42
2022-08-14T05:57:53.232Z,3.13
2022-08-14T06:00:24.744Z,3.88
2022-08-14T06:03:00.605Z,3.60
2022-08-14T06:05:32.902Z,3.58
2022-08-14T06:08:03.137Z,3.47
2022-08-14T06:10:36.716Z,3.63
2022-08-14T06:13:04.680Z,3.42
2022-08-14T06:15:32.550Z,3.97
2022-08-14T06:18:01.965Z,3.70
2022-08-14T06:20:30.921Z,3.53
2022-08-14T06:22:59.759Z,3.70
2022-08-14T06:25:28.461Z,3.58
2022-08-14T06:27:58.214Z,3.90
2022-08-14T06:30:45.869Z,3.53
2022-08-14T06:33:18.230Z,3.38
2022-08-14T06:35:47.340Z,3.35
2022-08-14T06:38:21.495Z,3.40
2022-08-14T06:40:52.169Z,3.10
2022-08-14T06:43:27.050Z,3.30
2022-08-14T06:45:57.753Z,3.03
2022-08-14T06:48:29.673Z,3.42
2022-08-14T06:51:00.539Z,2.78
2022-08-14T06:53:28.696Z,2.85
2022-08-14T06:56:01.018Z,2.65
2022-08-14T06:58:32.095Z,2.42
2022-08-14T07:01:25.108Z,2.42
2022-08-14T07:04:24.119Z,3.22
2022-08-14T07:06:55.440Z,2.45
2022-08-14T07:09:27.843Z,1.90
2022-08-14T07:11:56.313Z,2.28
2022-08-14T07:14:25.763Z,1.80
2022-08-14T07:16:54.347Z,1.90
2022-08-14T07:19:24.122Z,1.92
2022-08-14T07:21:52.842Z,1.70
2022-08-14T07:24:26.146Z,2.05
2022-08-14T07:26:54.537Z,1.58
2022-08-14T07:29:26.223Z,2.10
2022-08-14T07:31:54.333Z,1.92
2022-08-14T07:34:36.078Z,2.13
2022-08-14T07:37:05.741Z,1.60
2022-08-14T07:39:34.518Z,1.70
2022-08-14T07:42:03.179Z,1.80
2022-08-14T07:44:35.880Z,2.00
2022-08-14T07:47:15.794Z,1.80
2022-08-14T07:49:55.504Z,1.73
2022-08-14T07:52:30.504Z,2.20
2022-08-14T07:54:58.856Z,1.98
2022-08-14T07:57:27.437Z,1.98
2022-08-14T07:59:55.521Z,1.75
2022-08-14T08:02:23.761Z,1.77
2022-08-14T08:04:59.004Z,2.05
2022-08-14T08:07:31.425Z,1.42
2022-08-14T08:10:46.635Z,1.58
2022-08-14T08:13:14.095Z,1.63
2022-08-14T08:15:44.865Z,1.42
2022-08-14T08:18:20.444Z,1.52
2022-08-14T08:20:59.722Z,1.90
2022-08-14T08:23:40.233Z,2.10
2022-08-14T08:26:08.942Z,1.98
2022-08-14T08:28:37.476Z,1.33
2022-08-14T08:31:08.206Z,1.58
2022-08-14T08:33:37.803Z,1.60
2022-08-14T08:36:12.670Z,1.88
2022-08-14T08:39:15.363Z,1.70
2022-08-14T08:44:17.530Z,1.93
2022-08-14T08:46:58.599Z,1.65
2022-08-14T08:49:37.164Z,2.03
2022-08-14T08:52:15.326Z,1.83
2022-08-14T08:54:55.234Z,1.50
2022-08-14T08:57:24.274Z,1.70
2022-08-14T08:59:55.268Z,1.52
2022-08-14T09:02:27.512Z,1.52
2022-08-14T09:05:03.331Z,1.63
2022-08-14T09:07:32.631Z,1.50
2022-08-14T09:10:01.467Z,1.60
2022-08-14T09:12:33.411Z,1.42
2022-08-14T09:15:03.027Z,1.33
2022-08-14T09:17:31.121Z,1.85
2022-08-14T09:20:02.308Z,1.48
2022-08-14T09:22:36.463Z,2.00
2022-08-14T09:25:17.194Z,1.50
2022-08-14T09:27:48.322Z,1.50
2022-08-14T09:30:32.462Z,1.73
2022-08-14T09:33:22.972Z,1.67
2022-08-14T09:36:07.786Z,1.85
2022-08-14T09:38:45.435Z,1.50
2022-08-14T09:41:24.633Z,1.88
2022-08-14T09:44:00.494Z,2.05
2022-08-14T09:46:34.753Z,1.52
2022-08-14T09:49:04.642Z,2.08
2022-08-14T09:51:41.353Z,1.83
2022-08-14T09:54:22.796Z,1.55
2022-08-14T09:56:57.306Z,1.65
2022-08-14T09:59:28.365Z,1.60
2022-08-14T10:02:01.083Z,1.50
2022-08-14T10:04:35.658Z,1.77
2022-08-14T10:07:05.213Z,1.45
2022-08-14T10:09:35.074Z,1.48
2022-08-14T10:12:06.785Z,1.30
2022-08-14T10:14:53.299Z,1.70
2022-08-14T10:17:27.609Z,1.58
2022-08-14T10:20:01.062Z,1.65
2022-08-14T10:23:12.077Z,1.60
2022-08-14T10:25:19.844Z,2.03
2022-08-14T10:27:58.521Z,1.40
2022-08-14T10:30:35.006Z,1.63
2022-08-14T10:33:03.555Z,1.63
2022-08-14T10:35:48.251Z,1.80
2022-08-14T10:38:26.700Z,1.60
2022-08-14T10:40:59.462Z,1.70
2022-08-14T10:43:31.717Z,1.65
2022-08-14T10:46:22.065Z,1.73
2022-08-14T10:49:02.944Z,1.50
2022-08-14T10:51:35.446Z,2.03
2022-08-14T10:54:26.327Z,1.58
2022-08-14T10:56:59.037Z,1.60
2022-08-14T10:59:36.181Z,1.52
2022-08-14T11:02:46.026Z,1.20
2022-08-14T11:05:13.346Z,1.80
2022-08-14T11:07:55.303Z,1.50
2022-08-14T11:10:26.401Z,1.80
2022-08-14T11:12:58.720Z,1.50
2022-08-14T11:15:29.457Z,1.50
2022-08-14T11:18:01.151Z,1.40
2022-08-14T11:20:31.678Z,1.30
2022-08-14T11:23:02.005Z,1.65
2022-08-14T11:25:41.349Z,1.70
2022-08-14T11:28:18.823Z,1.90
2022-08-14T11:30:54.261Z,1.50
2022-08-14T11:33:29.442Z,1.42
2022-08-14T11:36:00.358Z,1.80
2022-08-14T11:38:37.864Z,1.40
2022-08-14T11:41:07.379Z,1.48
2022-08-14T11:43:41.770Z,1.50
2022-08-14T11:46:17.784Z,1.45
2022-08-14T11:49:05.422Z,1.70
2022-08-14T11:51:42.943Z,1.60
2022-08-14T11:54:33.882Z,1.45
2022-08-14T11:57:04.689Z,1.80
2022-08-14T11:59:34.293Z,1.52
2022-08-14T12:03:01.093Z,1.70
2022-08-14T12:04:58.822Z,1.70
2022-08-14T12:07:27.136Z,1.55
2022-08-14T12:09:58.610Z,1.52
2022-08-14T12:12:35.544Z,1.77
2022-08-14T12:15:08.627Z,1.58
2022-08-14T12:17:49.616Z,1.63
2022-08-14T12:20:30.216Z,1.73
2022-08-14T12:23:01.587Z,1.30
2022-08-14T12:25:30.892Z,1.70
2022-08-14T12:28:08.395Z,1.50
2022-08-14T12:30:43.386Z,1.52
2022-08-14T12:33:25.675Z,1.17
2022-08-14T12:35:57.708Z,0.98
2022-08-14T12:38:38.070Z,1.10
2022-08-14T12:41:11.386Z,0.90
2022-08-14T12:43:53.611Z,1.23
2022-08-14T12:46:28.464Z,1.20
2022-08-14T12:48:58.878Z,1.17
2022-08-14T12:51:28.725Z,1.08
2022-08-14T12:54:00.016Z,1.10
2022-08-14T12:56:32.556Z,0.80
2022-08-14T12:59:02.867Z,0.90
2022-08-14T13:02:00.337Z,0.93
2022-08-14T13:04:23.233Z,1.58
2022-08-14T13:06:52.786Z,1.08
2022-08-14T13:09:21.079Z,0.80
2022-08-14T13:11:58.579Z,0.98
2022-08-14T13:14:48.785Z,1.05
2022-08-14T13:17:19.245Z,0.80
2022-08-14T13:19:47.706Z,1.05
2022-08-14T13:22:29.077Z,0.90
2022-08-14T13:25:05.251Z,1.00
2022-08-14T13:27:39.173Z,0.90
2022-08-14T13:30:10.792Z,1.10
2022-08-14T13:32:50.605Z,1.23
2022-08-14T13:35:19.313Z,1.00
2022-08-14T13:37:49.640Z,0.80
2022-08-14T13:40:26.685Z,1.73
2022-08-14T13:42:56.999Z,1.20
2022-08-14T13:45:59.267Z,1.23
2022-08-14T13:48:19.175Z,0.80
2022-08-14T13:51:04.637Z,1.10
2022-08-14T13:53:38.006Z,1.25
2022-08-14T13:56:14.594Z,1.40
2022-08-14T13:58:49.217Z,1.20
2022-08-14T14:01:18.977Z,1.30
2022-08-14T14:03:52.626Z,1.50
2022-08-14T14:06:24.524Z,1.15
2022-08-14T14:08:56.340Z,1.38
2022-08-14T14:11:29.962Z,1.30
2022-08-14T14:13:59.916Z,1.80
2022-08-14T14:16:30.650Z,1.73
2022-08-14T14:19:09.134Z,1.60
2022-08-14T14:21:40.917Z,1.40
2022-08-14T14:24:15.499Z,1.50
2022-08-14T14:26:50.271Z,1.65
2022-08-14T14:29:24.177Z,2.00
2022-08-14T14:31:54.792Z,1.60
2022-08-14T14:34:29.577Z,1.75
2022-08-14T14:37:02.527Z,1.63
2022-08-14T14:39:35.280Z,1.75
2022-08-14T14:42:08.087Z,1.70
2022-08-14T14:44:40.642Z,1.80
2022-08-14T14:47:13.871Z,1.77
2022-08-14T14:49:54.488Z,1.67
2022-08-14T14:52:27.049Z,1.58
2022-08-14T14:54:57.306Z,1.92
2022-08-14T14:57:35.515Z,2.05
2022-08-14T15:02:38.136Z,1.80
2022-08-14T15:05:08.348Z,1.90
2022-08-14T15:07:36.453Z,1.52
2022-08-14T15:10:05.142Z,1.50
2022-08-14T15:12:54.985Z,1.40
2022-08-14T15:15:21.280Z,1.92
2022-08-14T15:17:54.738Z,1.60
2022-08-14T15:20:30.129Z,1.90
2022-08-14T15:23:00.659Z,2.08
2022-08-14T15:25:31.729Z,1.90
2022-08-14T15:28:00.799Z,1.90
2022-08-14T15:30:32.252Z,2.05
2022-08-14T15:33:00.857Z,2.28
2022-08-14T15:35:33.951Z,1.67
2022-08-14T15:38:07.877Z,1.92
2022-08-14T15:40:37.575Z,2.35
2022-08-14T15:43:10.819Z,2.22
2022-08-14T15:45:41.656Z,2.20
2022-08-14T15:48:14.150Z,1.92
2022-08-14T15:50:52.009Z,2.20
2022-08-14T15:53:20.516Z,1.98
2022-08-14T15:55:48.467Z,1.83
2022-08-14T15:58:21.056Z,1.80
2022-08-14T16:01:08.134Z,2.03
2022-08-14T16:03:42.334Z,1.90
2022-08-14T16:06:17.950Z,1.80
2022-08-14T16:08:50.442Z,2.13
2022-08-14T16:11:28.882Z,2.00
2022-08-14T16:14:01.459Z,2.30
2022-08-14T16:16:49.053Z,2.30
2022-08-14T16:19:20.105Z,2.00
2022-08-14T16:22:01.446Z,1.70
2022-08-14T16:25:02.347Z,2.30
2022-08-14T16:27:39.296Z,2.20
2022-08-14T16:30:24.677Z,2.40
2022-08-14T16:32:57.502Z,2.83
2022-08-14T16:35:42.526Z,2.13
2022-08-14T16:38:29.447Z,2.33
2022-08-14T16:41:26.370Z,2.28
2022-08-14T16:44:01.770Z,2.50
2022-08-14T16:46:32.852Z,2.05
2022-08-14T16:49:01.762Z,2.10
2022-08-14T16:51:34.769Z,2.03
2022-08-14T16:54:33.932Z,2.13
2022-08-14T16:56:57.231Z,1.65
2022-08-14T16:59:30.348Z,1.92
2022-08-14T17:02:05.173Z,2.60
2022-08-14T17:04:34.635Z,2.63
2022-08-14T17:07:11.860Z,2.67
2022-08-14T17:09:45.511Z,2.30
2022-08-14T17:12:28.586Z,2.45
2022-08-14T17:15:10.558Z,2.00
2022-08-14T17:17:57.900Z,2.28
2022-08-14T17:20:39.329Z,2.40
2022-08-14T17:25:49.265Z,2.15
2022-08-14T17:28:50.026Z,4.72
2022-08-14T17:31:08.630Z,4.90
2022-08-14T17:33:40.912Z,4.25
2022-08-14T17:36:21.019Z,5.03
2022-08-14T17:39:06.443Z,2.10
2022-08-14T17:41:43.349Z,3.63
2022-08-14T17:44:21.840Z,5.23
2022-08-14T17:47:02.984Z,6.60
2022-08-14T17:49:32.751Z,6.85
2022-08-14T17:52:07.548Z,11.32
2022-08-14T17:54:47.443Z,20.65
2022-08-14T17:57:26.173Z,9.70
2022-08-14T17:59:59.480Z,6.03
2022-08-14T18:02:31.527Z,24.10
2022-08-14T18:05:03.124Z,4.13
2022-08-14T18:08:00.272Z,3.30
2022-08-14T18:10:52.096Z,3.10
2022-08-14T18:13:11.800Z,2.30
2022-08-14T18:15:41.207Z,2.80
2022-08-14T18:18:11.747Z,6.22
2022-08-14T18:21:41.987Z,4.47
2022-08-14T18:23:28.751Z,3.30
2022-08-14T18:25:58.871Z,2.20
2022-08-14T18:28:51.923Z,1.77
2022-08-14T18:31:42.119Z,1.80
2022-08-14T18:34:32.150Z,1.75
2022-08-14T18:37:18.348Z,1.98
2022-08-14T18:40:01.493Z,1.88
2022-08-14T18:42:44.261Z,1.85
2022-08-14T18:45:18.892Z,1.80
2022-08-14T18:48:14.159Z,2.22
2022-08-14T18:50:52.291Z,2.00
2022-08-14T18:53:25.053Z,2.10
2022-08-14T18:55:59.992Z,1.80
2022-08-14T18:58:34.090Z,2.42
2022-08-14T19:01:06.095Z,2.35
2022-08-14T19:03:49.304Z,2.08
2022-08-14T19:06:18.119Z,2.25
2022-08-14T19:08:48.614Z,2.05
2022-08-14T19:11:50.464Z,2.13
2022-08-14T19:14:48.329Z,2.17
2022-08-14T19:17:42.886Z,2.22
2022-08-14T19:20:46.541Z,2.20
2022-08-14T19:23:18.204Z,2.50
2022-08-14T19:25:56.581Z,2.25
2022-08-14T19:28:31.213Z,1.95
2022-08-14T19:31:42.569Z,1.88
2022-08-14T19:34:37.488Z,2.15
2022-08-14T19:37:06.501Z,2.63
2022-08-14T19:39:53.999Z,2.25
2022-08-14T19:42:28.546Z,2.17
2022-08-14T19:44:59.160Z,2.80
2022-08-14T19:47:41.425Z,2.40
2022-08-14T19:50:38.306Z,2.42
2022-08-14T19:55:45.857Z,2.60
2022-08-14T19:58:14.239Z,2.67
2022-08-14T20:00:51.748Z,2.83
2022-08-14T20:03:23.284Z,2.88
2022-08-14T20:06:00.679Z,2.72
2022-08-14T20:09:05.689Z,3.20
2022-08-14T20:12:00.509Z,2.72
2022-08-14T20:14:20.773Z,3.00
2022-08-14T20:16:54.597Z,2.80
2022-08-14T20:19:28.590Z,2.83
2022-08-14T20:22:04.419Z,3.35
2022-08-14T20:24:47.434Z,2.83
2022-08-14T20:27:34.053Z,2.95
2022-08-14T20:30:29.821Z,3.13
2022-08-14T20:33:07.890Z,3.25
2022-08-14T20:35:47.566Z,3.33
2022-08-14T20:38:29.440Z,3.30
2022-08-14T20:41:02.022Z,2.83
2022-08-14T20:43:53.865Z,3.15
2022-08-14T20:46:29.400Z,3.07
2022-08-14T20:49:00.066Z,3.10
2022-08-14T20:51:36.566Z,3.20
2022-08-14T20:54:07.455Z,3.13
2022-08-14T20:56:38.024Z,3.30
2022-08-14T20:59:17.911Z,3.13
2022-08-14T21:01:51.568Z,3.05
2022-08-14T21:04:27.076Z,2.80
2022-08-14T21:07:33.623Z,2.78
2022-08-14T21:10:04.998Z,3.03
2022-08-14T21:12:36.053Z,3.33
2022-08-14T21:15:11.163Z,3.38
2022-08-14T21:17:44.012Z,3.15
2022-08-14T21:20:25.851Z,2.90
2022-08-14T21:23:00.585Z,2.67
2022-08-14T21:25:31.797Z,2.65
2022-08-14T21:28:02.621Z,3.63
2022-08-14T21:30:51.537Z,3.28
2022-08-14T21:33:21.947Z,3.20
2022-08-14T21:35:55.092Z,2.83
2022-08-14T21:38:33.567Z,2.88
2022-08-14T21:41:41.907Z,3.22
2022-08-14T21:44:18.346Z,3.05
2022-08-14T21:46:51.054Z,2.63
2022-08-14T21:49:25.534Z,3.03
2022-08-14T21:52:51.932Z,3.10
2022-08-14T21:54:53.955Z,2.83
2022-08-14T21:57:56.444Z,3.58
2022-08-14T22:00:35.258Z,3.00
2022-08-14T22:03:05.411Z,3.20
2022-08-14T22:05:35.383Z,3.28
2022-08-14T22:08:07.300Z,3.38
2022-08-14T22:10:37.039Z,3.40
2022-08-14T22:13:05.455Z,2.92
2022-08-14T22:15:35.445Z,3.55
2022-08-14T22:18:05.153Z,2.85
2022-08-14T22:20:36.267Z,3.10
2022-08-14T22:23:06.449Z,3.10
2022-08-14T22:25:41.281Z,2.78
2022-08-14T22:28:12.982Z,3.17
2022-08-14T22:30:41.718Z,3.05
2022-08-14T22:33:13.371Z,2.95
2022-08-14T22:35:43.367Z,3.25
2022-08-14T22:38:37.897Z,3.35
2022-08-14T22:41:26.178Z,3.10
2022-08-14T22:43:47.694Z,3.33
2022-08-14T22:46:20.350Z,3.63
2022-08-14T22:48:49.798Z,3.33
2022-08-14T22:51:22.116Z,3.03
2022-08-14T22:53:53.174Z,4.00
2022-08-14T22:56:30.131Z,2.90
2022-08-14T22:59:00.086Z,2.75
2022-08-14T23:01:46.142Z,3.47
2022-08-14T23:04:35.728Z,3.63
2022-08-14T23:07:21.744Z,3.40
2022-08-14T23:09:56.796Z,3.25
2022-08-14T23:12:29.280Z,3.47
2022-08-14T23:14:59.232Z,3.70
2022-08-14T23:17:39.584Z,3.38
2022-08-14T23:20:19.071Z,3.65
2022-08-14T23:22:51.542Z,3.50
2022-08-14T23:25:56.881Z,3.55
2022-08-14T23:28:32.989Z,3.78
2022-08-14T23:30:57.275Z,4.20
2022-08-14T23:33:28.841Z,3.08
2022-08-14T23:35:59.519Z,3.92
2022-08-14T23:38:30.925Z,3.80
2022-08-14T23:41:00.792Z,4.03
2022-08-14T23:43:31.591Z,4.05
2022-08-14T23:46:00.603Z,3.60
2022-08-14T23:48:29.229Z,4.55
2022-08-14T23:50:58.974Z,3.92
2022-08-14T23:53:47.727Z,3.90
2022-08-14T23:56:30.399Z,3.83
2022-08-14T23:59:01.137Z,3.38
